sensor_id;sensor_type;location;lat;lon;timestamp;P1;durP1;ratioP1;P2;durP2;ratioP2
59310;SDS011;45078;51.654;21.250;2022-12-04T00:00:21;78.43;;;20.75;;
59310;SDS011;45078;51.654;21.250;2022-12-04T00:02:47;40.90;;;14.50;;
59310;SDS011;45078;51.654;21.250;2022-12-04T00:05:12;39.05;;;13.77;;
59310;SDS011;45078;51.654;21.250;2022-12-04T00:07:38;40.40;;;13.10;;
59310;SDS011;45078;51.654;21.250;2022-12-04T00:10:04;41.33;;;13.43;;
59310;SDS011;45078;51.654;21.250;2022-12-04T00:12:30;53.17;;;13.55;;
59310;SDS011;45078;51.654;21.250;2022-12-04T00:14:58;58.88;;;16.50;;
59310;SDS011;45078;51.654;21.250;2022-12-04T00:17:24;46.88;;;13.85;;
59310;SDS011;45078;51.654;21.250;2022-12-04T00:19:49;49.08;;;14.55;;
59310;SDS011;45078;51.654;21.250;2022-12-04T00:22:15;47.40;;;15.57;;
59310;SDS011;45078;51.654;21.250;2022-12-04T00:24:41;39.90;;;13.18;;
59310;SDS011;45078;51.654;21.250;2022-12-04T00:27:07;47.75;;;14.60;;
59310;SDS011;45078;51.654;21.250;2022-12-04T00:29:33;46.85;;;13.90;;
59310;SDS011;45078;51.654;21.250;2022-12-04T00:31:58;38.35;;;13.82;;
59310;SDS011;45078;51.654;21.250;2022-12-04T00:34:24;63.78;;;15.40;;
59310;SDS011;45078;51.654;21.250;2022-12-04T00:36:50;47.25;;;13.93;;
59310;SDS011;45078;51.654;21.250;2022-12-04T00:39:16;70.30;;;19.75;;
59310;SDS011;45078;51.654;21.250;2022-12-04T00:41:42;67.60;;;16.88;;
59310;SDS011;45078;51.654;21.250;2022-12-04T00:44:07;58.00;;;14.32;;
59310;SDS011;45078;51.654;21.250;2022-12-04T00:46:33;55.72;;;15.15;;
59310;SDS011;45078;51.654;21.250;2022-12-04T00:48:59;50.13;;;15.00;;
59310;SDS011;45078;51.654;21.250;2022-12-04T00:51:26;32.38;;;12.82;;
59310;SDS011;45078;51.654;21.250;2022-12-04T00:53:53;45.10;;;14.93;;
59310;SDS011;45078;51.654;21.250;2022-12-04T00:56:20;28.50;;;12.60;;
59310;SDS011;45078;51.654;21.250;2022-12-04T00:58:50;54.75;;;17.88;;
59310;SDS011;45078;51.654;21.250;2022-12-04T01:01:18;47.03;;;15.20;;
59310;SDS011;45078;51.654;21.250;2022-12-04T01:03:44;40.28;;;13.02;;
59310;SDS011;45078;51.654;21.250;2022-12-04T01:06:20;39.47;;;15.60;;
59310;SDS011;45078;51.654;21.250;2022-12-04T01:11:21;49.90;;;14.15;;
59310;SDS011;45078;51.654;21.250;2022-12-04T01:13:49;41.83;;;12.60;;
59310;SDS011;45078;51.654;21.250;2022-12-04T01:16:19;43.80;;;13.20;;
59310;SDS011;45078;51.654;21.250;2022-12-04T01:18:47;59.05;;;17.92;;
59310;SDS011;45078;51.654;21.250;2022-12-04T01:21:14;59.40;;;18.90;;
59310;SDS011;45078;51.654;21.250;2022-12-04T01:23:40;46.92;;;14.05;;
59310;SDS011;45078;51.654;21.250;2022-12-04T01:26:06;56.60;;;16.38;;
59310;SDS011;45078;51.654;21.250;2022-12-04T01:28:32;40.42;;;12.90;;
59310;SDS011;45078;51.654;21.250;2022-12-04T01:31:03;44.30;;;15.02;;
59310;SDS011;45078;51.654;21.250;2022-12-04T01:33:34;37.03;;;11.57;;
59310;SDS011;45078;51.654;21.250;2022-12-04T01:36:01;51.30;;;15.98;;
59310;SDS011;45078;51.654;21.250;2022-12-04T01:38:29;45.85;;;15.57;;
59310;SDS011;45078;51.654;21.250;2022-12-04T01:40:55;58.55;;;14.70;;
59310;SDS011;45078;51.654;21.250;2022-12-04T01:43:21;39.75;;;13.32;;
59310;SDS011;45078;51.654;21.250;2022-12-04T01:45:48;49.10;;;15.15;;
59310;SDS011;45078;51.654;21.250;2022-12-04T01:48:18;45.75;;;15.75;;
59310;SDS011;45078;51.654;21.250;2022-12-04T01:50:49;55.20;;;15.30;;
59310;SDS011;45078;51.654;21.250;2022-12-04T01:53:18;37.03;;;12.38;;
59310;SDS011;45078;51.654;21.250;2022-12-04T01:55:45;47.72;;;13.77;;
59310;SDS011;45078;51.654;21.250;2022-12-04T01:58:12;49.28;;;14.05;;
59310;SDS011;45078;51.654;21.250;2022-12-04T02:00:41;42.17;;;14.07;;
59310;SDS011;45078;51.654;21.250;2022-12-04T02:03:07;40.10;;;13.68;;
59310;SDS011;45078;51.654;21.250;2022-12-04T02:05:33;46.42;;;13.93;;
59310;SDS011;45078;51.654;21.250;2022-12-04T02:08:01;36.40;;;11.88;;
59310;SDS011;45078;51.654;21.250;2022-12-04T02:18:53;60.75;;;16.17;;
59310;SDS011;45078;51.654;21.250;2022-12-04T02:21:35;65.15;;;15.63;;
59310;SDS011;45078;51.654;21.250;2022-12-04T02:24:29;34.45;;;11.10;;
59310;SDS011;45078;51.654;21.250;2022-12-04T02:26:52;36.10;;;11.23;;
59310;SDS011;45078;51.654;21.250;2022-12-04T02:29:36;42.97;;;13.02;;
59310;SDS011;45078;51.654;21.250;2022-12-04T02:32:21;58.67;;;15.48;;
59310;SDS011;45078;51.654;21.250;2022-12-04T02:35:15;29.70;;;9.50;;
59310;SDS011;45078;51.654;21.250;2022-12-04T02:37:52;32.20;;;10.32;;
59310;SDS011;45078;51.654;21.250;2022-12-04T02:40:33;24.70;;;9.95;;
59310;SDS011;45078;51.654;21.250;2022-12-04T02:45:43;22.70;;;9.30;;
59310;SDS011;45078;51.654;21.250;2022-12-04T02:48:14;49.78;;;14.93;;
59310;SDS011;45078;51.654;21.250;2022-12-04T02:50:44;33.90;;;12.38;;
59310;SDS011;45078;51.654;21.250;2022-12-04T02:53:15;21.42;;;9.68;;
59310;SDS011;45078;51.654;21.250;2022-12-04T02:55:52;25.85;;;9.50;;
59310;SDS011;45078;51.654;21.250;2022-12-04T02:58:26;10.00;;;4.88;;
59310;SDS011;45078;51.654;21.250;2022-12-04T03:00:57;23.27;;;8.20;;
59310;SDS011;45078;51.654;21.250;2022-12-04T03:03:27;26.98;;;6.88;;
59310;SDS011;45078;51.654;21.250;2022-12-04T03:06:04;20.10;;;8.23;;
59310;SDS011;45078;51.654;21.250;2022-12-04T03:08:38;27.23;;;9.52;;
59310;SDS011;45078;51.654;21.250;2022-12-04T03:13:37;17.02;;;6.65;;
59310;SDS011;45078;51.654;21.250;2022-12-04T03:16:21;24.70;;;8.23;;
59310;SDS011;45078;51.654;21.250;2022-12-04T03:19:02;24.65;;;8.57;;
59310;SDS011;45078;51.654;21.250;2022-12-04T03:22:03;28.35;;;10.30;;
59310;SDS011;45078;51.654;21.250;2022-12-04T03:24:37;19.70;;;8.00;;
59310;SDS011;45078;51.654;21.250;2022-12-04T03:27:37;20.25;;;8.20;;
59310;SDS011;45078;51.654;21.250;2022-12-04T03:30:23;25.23;;;9.82;;
59310;SDS011;45078;51.654;21.250;2022-12-04T03:32:51;22.17;;;9.27;;
59310;SDS011;45078;51.654;21.250;2022-12-04T03:35:28;29.95;;;8.40;;
59310;SDS011;45078;51.654;21.250;2022-12-04T03:38:19;32.92;;;10.88;;
59310;SDS011;45078;51.654;21.250;2022-12-04T03:40:57;27.10;;;8.75;;
59310;SDS011;45078;51.654;21.250;2022-12-04T03:44:11;32.33;;;11.82;;
59310;SDS011;45078;51.654;21.250;2022-12-04T03:46:29;22.17;;;9.00;;
59310;SDS011;45078;51.654;21.250;2022-12-04T03:49:07;23.33;;;9.25;;
59310;SDS011;45078;51.654;21.250;2022-12-04T03:51:55;33.15;;;9.23;;
59310;SDS011;45078;51.654;21.250;2022-12-04T03:54:47;34.83;;;11.82;;
59310;SDS011;45078;51.654;21.250;2022-12-04T03:57:20;30.85;;;11.73;;
59310;SDS011;45078;51.654;21.250;2022-12-04T04:02:40;12.80;;;6.07;;
59310;SDS011;45078;51.654;21.250;2022-12-04T04:05:14;30.75;;;11.45;;
59310;SDS011;45078;51.654;21.250;2022-12-04T04:07:45;14.48;;;5.82;;
59310;SDS011;45078;51.654;21.250;2022-12-04T04:10:16;19.35;;;9.38;;
59310;SDS011;45078;51.654;21.250;2022-12-04T04:12:45;16.77;;;8.02;;
59310;SDS011;45078;51.654;21.250;2022-12-04T04:15:39;12.60;;;7.53;;
59310;SDS011;45078;51.654;21.250;2022-12-04T04:18:27;23.02;;;7.10;;
59310;SDS011;45078;51.654;21.250;2022-12-04T04:21:14;26.77;;;10.02;;
59310;SDS011;45078;51.654;21.250;2022-12-04T04:24:03;30.88;;;9.48;;
59310;SDS011;45078;51.654;21.250;2022-12-04T04:26:44;31.35;;;9.48;;
59310;SDS011;45078;51.654;21.250;2022-12-04T04:29:12;19.40;;;8.85;;
59310;SDS011;45078;51.654;21.250;2022-12-04T04:31:42;36.85;;;12.27;;
59310;SDS011;45078;51.654;21.250;2022-12-04T04:34:18;28.95;;;9.30;;
59310;SDS011;45078;51.654;21.250;2022-12-04T04:37:10;30.40;;;11.88;;
59310;SDS011;45078;51.654;21.250;2022-12-04T04:42:48;41.42;;;12.52;;
59310;SDS011;45078;51.654;21.250;2022-12-04T04:45:24;27.50;;;8.75;;
59310;SDS011;45078;51.654;21.250;2022-12-04T04:48:13;42.92;;;13.40;;
59310;SDS011;45078;51.654;21.250;2022-12-04T04:51:07;21.48;;;7.43;;
59310;SDS011;45078;51.654;21.250;2022-12-04T04:53:35;30.02;;;10.55;;
59310;SDS011;45078;51.654;21.250;2022-12-04T04:56:14;26.73;;;8.88;;
59310;SDS011;45078;51.654;21.250;2022-12-04T04:58:41;21.70;;;8.98;;
59310;SDS011;45078;51.654;21.250;2022-12-04T05:01:11;26.73;;;8.75;;
59310;SDS011;45078;51.654;21.250;2022-12-04T05:03:39;31.58;;;9.90;;
59310;SDS011;45078;51.654;21.250;2022-12-04T05:06:06;25.95;;;10.15;;
59310;SDS011;45078;51.654;21.250;2022-12-04T05:08:32;24.30;;;9.18;;
59310;SDS011;45078;51.654;21.250;2022-12-04T05:10:58;27.92;;;10.50;;
59310;SDS011;45078;51.654;21.250;2022-12-04T05:13:24;33.60;;;10.13;;
59310;SDS011;45078;51.654;21.250;2022-12-04T05:15:55;32.33;;;9.52;;
59310;SDS011;45078;51.654;21.250;2022-12-04T05:18:25;22.73;;;9.18;;
59310;SDS011;45078;51.654;21.250;2022-12-04T05:20:51;24.42;;;8.82;;
59310;SDS011;45078;51.654;21.250;2022-12-04T05:23:17;23.67;;;10.15;;
59310;SDS011;45078;51.654;21.250;2022-12-04T05:25:44;22.58;;;8.63;;
59310;SDS011;45078;51.654;21.250;2022-12-04T05:28:09;23.10;;;8.65;;
59310;SDS011;45078;51.654;21.250;2022-12-04T05:30:35;22.60;;;8.60;;
59310;SDS011;45078;51.654;21.250;2022-12-04T05:33:01;31.48;;;12.25;;
59310;SDS011;45078;51.654;21.250;2022-12-04T05:35:27;28.55;;;9.40;;
59310;SDS011;45078;51.654;21.250;2022-12-04T05:37:53;27.30;;;9.50;;
59310;SDS011;45078;51.654;21.250;2022-12-04T05:40:18;33.03;;;10.57;;
59310;SDS011;45078;51.654;21.250;2022-12-04T05:42:44;26.33;;;11.32;;
59310;SDS011;45078;51.654;21.250;2022-12-04T05:45:10;37.55;;;12.32;;
59310;SDS011;45078;51.654;21.250;2022-12-04T05:47:37;37.00;;;11.82;;
59310;SDS011;45078;51.654;21.250;2022-12-04T05:50:04;26.55;;;9.30;;
59310;SDS011;45078;51.654;21.250;2022-12-04T05:52:31;34.47;;;10.68;;
59310;SDS011;45078;51.654;21.250;2022-12-04T05:54:56;29.40;;;11.10;;
59310;SDS011;45078;51.654;21.250;2022-12-04T05:57:22;21.05;;;9.55;;
59310;SDS011;45078;51.654;21.250;2022-12-04T05:59:49;20.60;;;8.40;;
59310;SDS011;45078;51.654;21.250;2022-12-04T06:02:15;15.38;;;6.10;;
59310;SDS011;45078;51.654;21.250;2022-12-04T06:04:41;27.33;;;10.15;;
59310;SDS011;45078;51.654;21.250;2022-12-04T06:07:08;16.70;;;6.78;;
59310;SDS011;45078;51.654;21.250;2022-12-04T06:09:34;26.17;;;9.82;;
59310;SDS011;45078;51.654;21.250;2022-12-04T06:12:00;33.63;;;11.18;;
59310;SDS011;45078;51.654;21.250;2022-12-04T06:14:26;25.45;;;9.05;;
59310;SDS011;45078;51.654;21.250;2022-12-04T06:16:52;24.92;;;8.90;;
59310;SDS011;45078;51.654;21.250;2022-12-04T06:19:19;33.00;;;11.52;;
59310;SDS011;45078;51.654;21.250;2022-12-04T06:21:46;23.95;;;8.45;;
59310;SDS011;45078;51.654;21.250;2022-12-04T06:24:15;21.70;;;9.48;;
59310;SDS011;45078;51.654;21.250;2022-12-04T06:26:43;41.60;;;10.93;;
59310;SDS011;45078;51.654;21.250;2022-12-04T06:29:10;22.95;;;9.25;;
59310;SDS011;45078;51.654;21.250;2022-12-04T06:31:36;37.42;;;13.65;;
59310;SDS011;45078;51.654;21.250;2022-12-04T06:34:02;44.92;;;13.75;;
59310;SDS011;45078;51.654;21.250;2022-12-04T06:36:29;25.98;;;10.68;;
59310;SDS011;45078;51.654;21.250;2022-12-04T06:38:55;29.73;;;10.38;;
59310;SDS011;45078;51.654;21.250;2022-12-04T06:41:22;37.42;;;9.88;;
59310;SDS011;45078;51.654;21.250;2022-12-04T06:43:49;29.77;;;9.27;;
59310;SDS011;45078;51.654;21.250;2022-12-04T06:46:22;27.80;;;10.20;;
59310;SDS011;45078;51.654;21.250;2022-12-04T06:48:53;19.20;;;8.18;;
59310;SDS011;45078;51.654;21.250;2022-12-04T06:51:22;21.48;;;9.45;;
59310;SDS011;45078;51.654;21.250;2022-12-04T06:53:51;38.03;;;13.65;;
59310;SDS011;45078;51.654;21.250;2022-12-04T06:56:19;19.40;;;8.75;;
59310;SDS011;45078;51.654;21.250;2022-12-04T06:58:47;30.70;;;11.05;;
59310;SDS011;45078;51.654;21.250;2022-12-04T07:01:15;23.75;;;9.63;;
59310;SDS011;45078;51.654;21.250;2022-12-04T07:03:42;18.65;;;7.10;;
59310;SDS011;45078;51.654;21.250;2022-12-04T07:06:22;23.90;;;10.10;;
59310;SDS011;45078;51.654;21.250;2022-12-04T07:08:49;41.30;;;13.82;;
59310;SDS011;45078;51.654;21.250;2022-12-04T07:11:17;27.73;;;10.75;;
59310;SDS011;45078;51.654;21.250;2022-12-04T07:13:44;40.10;;;11.40;;
59310;SDS011;45078;51.654;21.250;2022-12-04T07:16:11;50.42;;;15.63;;
59310;SDS011;45078;51.654;21.250;2022-12-04T07:18:38;40.92;;;19.30;;
59310;SDS011;45078;51.654;21.250;2022-12-04T07:21:05;32.25;;;15.75;;
59310;SDS011;45078;51.654;21.250;2022-12-04T07:23:36;28.48;;;9.63;;
59310;SDS011;45078;51.654;21.250;2022-12-04T07:26:06;32.35;;;11.32;;
59310;SDS011;45078;51.654;21.250;2022-12-04T07:28:36;27.70;;;10.57;;
59310;SDS011;45078;51.654;21.250;2022-12-04T07:31:03;28.65;;;9.73;;
59310;SDS011;45078;51.654;21.250;2022-12-04T07:33:33;36.30;;;9.52;;
59310;SDS011;45078;51.654;21.250;2022-12-04T07:35:59;20.35;;;8.82;;
59310;SDS011;45078;51.654;21.250;2022-12-04T07:38:27;29.63;;;11.60;;
59310;SDS011;45078;51.654;21.250;2022-12-04T07:40:57;26.98;;;9.68;;
59310;SDS011;45078;51.654;21.250;2022-12-04T07:43:24;36.72;;;12.98;;
59310;SDS011;45078;51.654;21.250;2022-12-04T07:45:51;28.33;;;10.23;;
59310;SDS011;45078;51.654;21.250;2022-12-04T07:48:17;34.28;;;11.23;;
59310;SDS011;45078;51.654;21.250;2022-12-04T07:50:43;21.23;;;8.88;;
59310;SDS011;45078;51.654;21.250;2022-12-04T07:53:09;19.13;;;7.78;;
59310;SDS011;45078;51.654;21.250;2022-12-04T07:55:35;22.30;;;8.93;;
59310;SDS011;45078;51.654;21.250;2022-12-04T07:58:00;19.88;;;9.45;;
59310;SDS011;45078;51.654;21.250;2022-12-04T08:00:26;29.13;;;11.38;;
59310;SDS011;45078;51.654;21.250;2022-12-04T08:02:52;21.52;;;10.32;;
59310;SDS011;45078;51.654;21.250;2022-12-04T08:05:18;37.63;;;10.25;;
59310;SDS011;45078;51.654;21.250;2022-12-04T08:07:44;22.25;;;9.85;;
59310;SDS011;45078;51.654;21.250;2022-12-04T08:10:10;28.58;;;10.95;;
59310;SDS011;45078;51.654;21.250;2022-12-04T08:12:36;19.38;;;9.32;;
59310;SDS011;45078;51.654;21.250;2022-12-04T08:15:01;25.60;;;10.75;;
59310;SDS011;45078;51.654;21.250;2022-12-04T08:17:27;23.55;;;10.93;;
59310;SDS011;45078;51.654;21.250;2022-12-04T08:19:53;36.08;;;12.38;;
59310;SDS011;45078;51.654;21.250;2022-12-04T08:22:19;24.60;;;9.70;;
59310;SDS011;45078;51.654;21.250;2022-12-04T08:24:45;24.13;;;9.10;;
59310;SDS011;45078;51.654;21.250;2022-12-04T08:27:11;36.45;;;13.88;;
59310;SDS011;45078;51.654;21.250;2022-12-04T08:29:36;29.10;;;12.43;;
59310;SDS011;45078;51.654;21.250;2022-12-04T08:32:02;36.22;;;13.43;;
59310;SDS011;45078;51.654;21.250;2022-12-04T08:34:29;26.80;;;10.38;;
59310;SDS011;45078;51.654;21.250;2022-12-04T08:36:55;28.63;;;9.95;;
59310;SDS011;45078;51.654;21.250;2022-12-04T08:39:21;26.75;;;9.23;;
59310;SDS011;45078;51.654;21.250;2022-12-04T08:41:46;36.38;;;12.27;;
59310;SDS011;45078;51.654;21.250;2022-12-04T08:44:12;30.33;;;12.20;;
59310;SDS011;45078;51.654;21.250;2022-12-04T08:46:38;23.25;;;10.25;;
59310;SDS011;45078;51.654;21.250;2022-12-04T08:49:04;25.83;;;10.95;;
59310;SDS011;45078;51.654;21.250;2022-12-04T08:51:31;27.52;;;10.38;;
59310;SDS011;45078;51.654;21.250;2022-12-04T08:54:00;25.30;;;8.82;;
59310;SDS011;45078;51.654;21.250;2022-12-04T08:56:29;28.45;;;10.13;;
59310;SDS011;45078;51.654;21.250;2022-12-04T08:58:56;23.20;;;9.05;;
59310;SDS011;45078;51.654;21.250;2022-12-04T09:01:22;20.55;;;8.23;;
59310;SDS011;45078;51.654;21.250;2022-12-04T09:03:49;23.80;;;11.40;;
59310;SDS011;45078;51.654;21.250;2022-12-04T09:06:16;17.13;;;8.45;;
59310;SDS011;45078;51.654;21.250;2022-12-04T09:08:45;18.92;;;8.70;;
59310;SDS011;45078;51.654;21.250;2022-12-04T09:11:15;29.67;;;11.27;;
59310;SDS011;45078;51.654;21.250;2022-12-04T09:13:43;26.00;;;10.93;;
59310;SDS011;45078;51.654;21.250;2022-12-04T09:16:11;20.33;;;9.30;;
59310;SDS011;45078;51.654;21.250;2022-12-04T09:18:38;21.95;;;8.75;;
59310;SDS011;45078;51.654;21.250;2022-12-04T09:21:09;20.85;;;9.85;;
59310;SDS011;45078;51.654;21.250;2022-12-04T09:23:36;17.23;;;8.55;;
59310;SDS011;45078;51.654;21.250;2022-12-04T09:26:03;28.80;;;10.55;;
59310;SDS011;45078;51.654;21.250;2022-12-04T09:28:30;17.35;;;8.30;;
59310;SDS011;45078;51.654;21.250;2022-12-04T09:31:03;32.88;;;11.48;;
59310;SDS011;45078;51.654;21.250;2022-12-04T09:33:30;23.23;;;9.30;;
59310;SDS011;45078;51.654;21.250;2022-12-04T09:35:59;20.15;;;9.13;;
59310;SDS011;45078;51.654;21.250;2022-12-04T09:38:26;21.05;;;8.18;;
59310;SDS011;45078;51.654;21.250;2022-12-04T09:43:56;29.60;;;13.05;;
59310;SDS011;45078;51.654;21.250;2022-12-04T09:46:34;16.20;;;7.65;;
59310;SDS011;45078;51.654;21.250;2022-12-04T09:49:09;18.55;;;10.07;;
59310;SDS011;45078;51.654;21.250;2022-12-04T09:51:39;25.60;;;10.82;;
59310;SDS011;45078;51.654;21.250;2022-12-04T09:54:13;22.67;;;9.27;;
59310;SDS011;45078;51.654;21.250;2022-12-04T09:56:43;15.90;;;8.85;;
59310;SDS011;45078;51.654;21.250;2022-12-04T09:59:18;14.20;;;6.47;;
59310;SDS011;45078;51.654;21.250;2022-12-04T10:01:48;18.73;;;8.40;;
59310;SDS011;45078;51.654;21.250;2022-12-04T10:04:34;11.43;;;5.82;;
59310;SDS011;45078;51.654;21.250;2022-12-04T10:07:07;24.52;;;9.65;;
59310;SDS011;45078;51.654;21.250;2022-12-04T10:10:11;18.02;;;8.18;;
59310;SDS011;45078;51.654;21.250;2022-12-04T10:15:51;17.27;;;6.78;;
59310;SDS011;45078;51.654;21.250;2022-12-04T10:18:31;19.95;;;9.00;;
59310;SDS011;45078;51.654;21.250;2022-12-04T10:27:24;13.02;;;6.80;;
59310;SDS011;45078;51.654;21.250;2022-12-04T10:29:55;17.75;;;7.80;;
59310;SDS011;45078;51.654;21.250;2022-12-04T10:32:31;17.17;;;8.50;;
59310;SDS011;45078;51.654;21.250;2022-12-04T10:34:58;24.58;;;10.10;;
59310;SDS011;45078;51.654;21.250;2022-12-04T10:37:50;27.13;;;10.38;;
59310;SDS011;45078;51.654;21.250;2022-12-04T10:40:22;18.13;;;8.10;;
59310;SDS011;45078;51.654;21.250;2022-12-04T10:42:59;23.67;;;9.30;;
59310;SDS011;45078;51.654;21.250;2022-12-04T10:45:36;18.83;;;8.18;;
59310;SDS011;45078;51.654;21.250;2022-12-04T10:48:01;21.48;;;8.73;;
59310;SDS011;45078;51.654;21.250;2022-12-04T10:50:29;17.63;;;7.55;;
59310;SDS011;45078;51.654;21.250;2022-12-04T10:52:55;22.15;;;8.85;;
59310;SDS011;45078;51.654;21.250;2022-12-04T10:55:29;21.20;;;8.93;;
59310;SDS011;45078;51.654;21.250;2022-12-04T10:57:56;12.95;;;5.95;;
59310;SDS011;45078;51.654;21.250;2022-12-04T11:00:24;26.60;;;10.63;;
59310;SDS011;45078;51.654;21.250;2022-12-04T11:02:53;22.77;;;9.75;;
59310;SDS011;45078;51.654;21.250;2022-12-04T11:05:34;16.20;;;7.13;;
59310;SDS011;45078;51.654;21.250;2022-12-04T11:08:04;18.80;;;8.75;;
59310;SDS011;45078;51.654;21.250;2022-12-04T11:15:43;19.83;;;10.63;;
59310;SDS011;45078;51.654;21.250;2022-12-04T11:18:17;29.05;;;8.68;;
59310;SDS011;45078;51.654;21.250;2022-12-04T11:23:41;17.70;;;7.47;;
59310;SDS011;45078;51.654;21.250;2022-12-04T11:26:12;14.15;;;7.65;;
59310;SDS011;45078;51.654;21.250;2022-12-04T11:28:39;13.30;;;7.03;;
59310;SDS011;45078;51.654;21.250;2022-12-04T11:31:16;16.35;;;8.50;;
59310;SDS011;45078;51.654;21.250;2022-12-04T11:33:49;18.35;;;8.35;;
59310;SDS011;45078;51.654;21.250;2022-12-04T11:36:20;13.27;;;6.80;;
59310;SDS011;45078;51.654;21.250;2022-12-04T11:38:52;12.52;;;7.38;;
59310;SDS011;45078;51.654;21.250;2022-12-04T11:41:29;24.23;;;11.20;;
59310;SDS011;45078;51.654;21.250;2022-12-04T11:43:56;26.52;;;12.38;;
59310;SDS011;45078;51.654;21.250;2022-12-04T11:46:24;18.40;;;8.57;;
59310;SDS011;45078;51.654;21.250;2022-12-04T11:48:51;15.77;;;7.63;;
59310;SDS011;45078;51.654;21.250;2022-12-04T11:51:24;18.15;;;7.90;;
59310;SDS011;45078;51.654;21.250;2022-12-04T11:56:43;17.38;;;9.20;;
59310;SDS011;45078;51.654;21.250;2022-12-04T12:12:50;20.77;;;9.73;;
59310;SDS011;45078;51.654;21.250;2022-12-04T12:20:58;25.42;;;9.70;;
59310;SDS011;45078;51.654;21.250;2022-12-04T12:26:12;15.05;;;7.55;;
59310;SDS011;45078;51.654;21.250;2022-12-04T12:37:04;19.35;;;8.20;;
59310;SDS011;45078;51.654;21.250;2022-12-04T12:39:56;17.70;;;9.48;;
59310;SDS011;45078;51.654;21.250;2022-12-04T12:42:47;22.55;;;9.95;;
59310;SDS011;45078;51.654;21.250;2022-12-04T12:48:52;19.88;;;9.00;;
59310;SDS011;45078;51.654;21.250;2022-12-04T12:53:33;15.90;;;8.45;;
59310;SDS011;45078;51.654;21.250;2022-12-04T12:56:04;18.13;;;9.02;;
59310;SDS011;45078;51.654;21.250;2022-12-04T12:59:14;22.80;;;10.18;;
59310;SDS011;45078;51.654;21.250;2022-12-04T13:04:36;15.80;;;9.00;;
59310;SDS011;45078;51.654;21.250;2022-12-04T13:07:39;13.65;;;6.85;;
59310;SDS011;45078;51.654;21.250;2022-12-04T13:10:19;17.60;;;8.55;;
59310;SDS011;45078;51.654;21.250;2022-12-04T13:15:52;14.57;;;7.43;;
59310;SDS011;45078;51.654;21.250;2022-12-04T13:18:27;18.05;;;7.28;;
59310;SDS011;45078;51.654;21.250;2022-12-04T13:20:58;20.27;;;8.60;;
59310;SDS011;45078;51.654;21.250;2022-12-04T13:35:18;18.60;;;8.82;;
59310;SDS011;45078;51.654;21.250;2022-12-04T13:41:11;18.48;;;7.57;;
59310;SDS011;45078;51.654;21.250;2022-12-04T13:43:51;13.02;;;7.30;;
59310;SDS011;45078;51.654;21.250;2022-12-04T13:49:05;19.83;;;9.57;;
59310;SDS011;45078;51.654;21.250;2022-12-04T13:51:37;20.88;;;10.00;;
59310;SDS011;45078;51.654;21.250;2022-12-04T13:56:40;17.63;;;8.88;;
59310;SDS011;45078;51.654;21.250;2022-12-04T14:01:59;16.33;;;6.75;;
59310;SDS011;45078;51.654;21.250;2022-12-04T14:04:45;20.58;;;10.00;;
59310;SDS011;45078;51.654;21.250;2022-12-04T14:07:24;26.30;;;10.57;;
59310;SDS011;45078;51.654;21.250;2022-12-04T14:09:52;26.00;;;11.00;;
59310;SDS011;45078;51.654;21.250;2022-12-04T14:12:27;14.93;;;8.18;;
59310;SDS011;45078;51.654;21.250;2022-12-04T14:17:42;17.30;;;8.73;;
59310;SDS011;45078;51.654;21.250;2022-12-04T14:20:24;16.58;;;8.80;;
59310;SDS011;45078;51.654;21.250;2022-12-04T14:23:06;24.33;;;10.38;;
59310;SDS011;45078;51.654;21.250;2022-12-04T14:25:36;18.73;;;7.32;;
59310;SDS011;45078;51.654;21.250;2022-12-04T14:30:57;26.40;;;11.90;;
59310;SDS011;45078;51.654;21.250;2022-12-04T14:33:48;26.38;;;12.68;;
59310;SDS011;45078;51.654;21.250;2022-12-04T14:36:26;20.08;;;11.38;;
59310;SDS011;45078;51.654;21.250;2022-12-04T14:41:46;14.77;;;7.25;;
59310;SDS011;45078;51.654;21.250;2022-12-04T14:44:45;26.27;;;10.63;;
59310;SDS011;45078;51.654;21.250;2022-12-04T14:47:13;19.45;;;7.75;;
59310;SDS011;45078;51.654;21.250;2022-12-04T14:52:59;34.67;;;12.43;;
59310;SDS011;45078;51.654;21.250;2022-12-04T14:58:30;17.90;;;8.50;;
59310;SDS011;45078;51.654;21.250;2022-12-04T15:01:00;13.43;;;6.63;;
59310;SDS011;45078;51.654;21.250;2022-12-04T15:03:29;14.40;;;7.88;;
59310;SDS011;45078;51.654;21.250;2022-12-04T15:06:06;22.23;;;9.90;;
59310;SDS011;45078;51.654;21.250;2022-12-04T15:08:46;22.58;;;9.57;;
59310;SDS011;45078;51.654;21.250;2022-12-04T15:11:18;23.88;;;11.10;;
59310;SDS011;45078;51.654;21.250;2022-12-04T15:14:08;17.33;;;8.65;;
59310;SDS011;45078;51.654;21.250;2022-12-04T15:16:38;30.30;;;14.60;;
59310;SDS011;45078;51.654;21.250;2022-12-04T15:19:04;19.30;;;8.40;;
59310;SDS011;45078;51.654;21.250;2022-12-04T15:21:36;22.38;;;10.48;;
59310;SDS011;45078;51.654;21.250;2022-12-04T15:24:08;14.65;;;8.30;;
59310;SDS011;45078;51.654;21.250;2022-12-04T15:26:35;24.30;;;10.38;;
59310;SDS011;45078;51.654;21.250;2022-12-04T15:29:02;29.38;;;13.27;;
59310;SDS011;45078;51.654;21.250;2022-12-04T15:31:30;19.42;;;9.15;;
59310;SDS011;45078;51.654;21.250;2022-12-04T15:34:06;28.08;;;11.20;;
59310;SDS011;45078;51.654;21.250;2022-12-04T15:39:11;23.20;;;10.30;;
59310;SDS011;45078;51.654;21.250;2022-12-04T15:41:40;18.20;;;8.52;;
59310;SDS011;45078;51.654;21.250;2022-12-04T15:46:54;14.65;;;7.78;;
59310;SDS011;45078;51.654;21.250;2022-12-04T15:49:25;16.85;;;9.32;;
59310;SDS011;45078;51.654;21.250;2022-12-04T15:52:02;22.13;;;11.18;;
59310;SDS011;45078;51.654;21.250;2022-12-04T15:54:52;33.10;;;13.55;;
59310;SDS011;45078;51.654;21.250;2022-12-04T15:57:34;18.63;;;7.97;;
59310;SDS011;45078;51.654;21.250;2022-12-04T16:00:03;22.20;;;9.95;;
59310;SDS011;45078;51.654;21.250;2022-12-04T16:02:46;25.63;;;11.65;;
59310;SDS011;45078;51.654;21.250;2022-12-04T16:05:21;21.20;;;10.65;;
59310;SDS011;45078;51.654;21.250;2022-12-04T16:07:58;20.30;;;9.18;;
59310;SDS011;45078;51.654;21.250;2022-12-04T16:14:12;20.63;;;8.90;;
59310;SDS011;45078;51.654;21.250;2022-12-04T16:16:36;18.58;;;7.80;;
59310;SDS011;45078;51.654;21.250;2022-12-04T16:21:58;21.17;;;8.65;;
59310;SDS011;45078;51.654;21.250;2022-12-04T16:24:25;27.58;;;12.93;;
59310;SDS011;45078;51.654;21.250;2022-12-04T16:26:51;25.40;;;10.68;;
59310;SDS011;45078;51.654;21.250;2022-12-04T16:29:22;23.77;;;11.00;;
59310;SDS011;45078;51.654;21.250;2022-12-04T16:31:48;27.95;;;12.80;;
59310;SDS011;45078;51.654;21.250;2022-12-04T16:34:14;24.73;;;12.48;;
59310;SDS011;45078;51.654;21.250;2022-12-04T16:36:40;24.10;;;12.98;;
59310;SDS011;45078;51.654;21.250;2022-12-04T16:39:06;26.55;;;11.68;;
59310;SDS011;45078;51.654;21.250;2022-12-04T16:41:34;25.70;;;13.30;;
59310;SDS011;45078;51.654;21.250;2022-12-04T16:43:59;21.98;;;11.75;;
59310;SDS011;45078;51.654;21.250;2022-12-04T16:46:29;20.77;;;10.13;;
59310;SDS011;45078;51.654;21.250;2022-12-04T16:48:54;21.67;;;9.50;;
59310;SDS011;45078;51.654;21.250;2022-12-04T16:51:22;20.98;;;10.05;;
59310;SDS011;45078;51.654;21.250;2022-12-04T16:53:49;21.02;;;10.43;;
59310;SDS011;45078;51.654;21.250;2022-12-04T16:56:16;16.33;;;8.88;;